createdAt,value
2022-08-26T00:01:53.295Z,89.23
2022-08-26T00:04:22.229Z,89.81
2022-08-26T00:06:49.204Z,89.30
2022-08-26T00:09:16.867Z,90.29
2022-08-26T00:11:47.460Z,87.79
2022-08-26T00:14:15.889Z,86.22
2022-08-26T00:16:48.093Z,85.02
2022-08-26T00:19:20.700Z,84.37
2022-08-26T00:21:49.756Z,84.71
2022-08-26T00:24:19.260Z,87.12
2022-08-26T00:26:46.588Z,87.79
2022-08-26T00:29:14.862Z,87.93
2022-08-26T00:31:42.533Z,86.78
2022-08-26T00:34:12.501Z,86.77
2022-08-26T00:36:41.069Z,88.04
2022-08-26T00:39:08.673Z,87.18
2022-08-26T00:41:38.278Z,89.23
2022-08-26T00:44:06.706Z,88.09
2022-08-26T00:46:46.955Z,87.90
2022-08-26T00:49:19.709Z,89.35
2022-08-26T00:51:52.488Z,90.44
2022-08-26T00:54:23.029Z,91.06
2022-08-26T00:56:59.876Z,90.25
2022-08-26T00:59:32.732Z,88.04
2022-08-26T01:02:02.713Z,87.57
2022-08-26T01:04:32.249Z,87.39
2022-08-26T01:07:00.019Z,90.15
2022-08-26T01:09:27.628Z,89.23
2022-08-26T01:11:57.684Z,88.26
2022-08-26T01:14:29.652Z,87.67
2022-08-26T01:16:56.664Z,88.08
2022-08-26T01:19:47.923Z,86.66
2022-08-26T01:22:21.021Z,86.01
2022-08-26T01:24:49.076Z,85.84
2022-08-26T01:27:19.835Z,85.40
2022-08-26T01:29:49.344Z,84.73
2022-08-26T01:32:22.314Z,84.56
2022-08-26T01:34:50.426Z,88.44
2022-08-26T01:37:22.168Z,89.79
2022-08-26T01:39:54.771Z,90.04
2022-08-26T01:42:24.694Z,91.15
2022-08-26T01:45:09.548Z,91.12
2022-08-26T01:47:37.949Z,91.06
2022-08-26T01:50:13.416Z,90.73
2022-08-26T01:52:49.868Z,90.02
2022-08-26T01:55:32.302Z,91.84
2022-08-26T01:58:04.824Z,92.94
2022-08-26T02:00:33.464Z,92.11
2022-08-26T02:03:18.800Z,93.19
2022-08-26T02:05:56.787Z,91.81
2022-08-26T02:08:45.968Z,89.90
2022-08-26T02:11:13.975Z,88.33
2022-08-26T02:13:48.707Z,87.04
2022-08-26T02:16:18.598Z,85.95
2022-08-26T02:18:47.072Z,85.98
2022-08-26T02:21:14.614Z,85.38
2022-08-26T02:23:42.694Z,84.55
2022-08-26T02:26:16.310Z,84.61
2022-08-26T02:28:49.063Z,87.37
2022-08-26T02:31:16.257Z,88.61
2022-08-26T02:33:43.399Z,90.48
2022-08-26T02:36:10.746Z,91.72
2022-08-26T02:38:40.311Z,90.42
2022-08-26T02:41:10.309Z,86.76
2022-08-26T02:43:37.393Z,85.97
2022-08-26T02:46:06.028Z,85.49
2022-08-26T02:48:33.200Z,86.92
2022-08-26T02:51:01.161Z,87.91
2022-08-26T02:53:32.078Z,87.60
2022-08-26T02:56:03.122Z,86.03
2022-08-26T02:58:30.095Z,86.73
2022-08-26T03:00:56.992Z,86.18
2022-08-26T03:03:23.973Z,86.53
2022-08-26T03:05:52.096Z,86.18
2022-08-26T03:08:19.618Z,85.88
2022-08-26T03:13:15.478Z,85.26
2022-08-26T03:15:42.334Z,85.16
2022-08-26T03:18:09.801Z,84.99
2022-08-26T03:20:37.165Z,84.70
2022-08-26T03:23:04.077Z,84.29
2022-08-26T03:25:31.297Z,84.45
2022-08-26T03:27:59.491Z,85.51
2022-08-26T03:30:45.214Z,85.01
2022-08-26T03:33:13.971Z,84.87
2022-08-26T03:35:43.607Z,84.05
2022-08-26T03:38:11.187Z,83.88
2022-08-26T03:40:39.145Z,84.62
2022-08-26T03:43:09.429Z,85.70
2022-08-26T03:45:37.862Z,86.51
2022-08-26T03:48:05.653Z,86.04
2022-08-26T03:50:34.230Z,85.04
2022-08-26T03:53:01.895Z,83.94
2022-08-26T03:55:34.197Z,83.21
2022-08-26T03:58:01.268Z,82.58
2022-08-26T04:00:29.688Z,85.60
2022-08-26T04:02:56.902Z,87.80
2022-08-26T04:05:25.415Z,87.20
2022-08-26T04:07:52.494Z,86.60
2022-08-26T04:10:28.721Z,85.44
2022-08-26T04:13:03.762Z,84.04
2022-08-26T04:15:30.954Z,83.53
2022-08-26T04:17:57.821Z,84.17
2022-08-26T04:20:25.965Z,86.65
2022-08-26T04:22:53.033Z,87.95
2022-08-26T04:25:27.894Z,86.66
2022-08-26T04:27:55.583Z,88.23
2022-08-26T04:30:22.472Z,90.04
2022-08-26T04:32:49.886Z,88.90
2022-08-26T04:35:17.036Z,89.01
2022-08-26T04:37:44.209Z,88.72
2022-08-26T04:40:12.121Z,89.95
2022-08-26T04:42:39.092Z,90.74
2022-08-26T04:45:09.975Z,89.98
2022-08-26T04:47:37.892Z,90.99
2022-08-26T04:50:07.493Z,90.51
2022-08-26T04:52:36.324Z,88.77
2022-08-26T04:55:05.957Z,88.15
2022-08-26T04:57:35.274Z,89.96
2022-08-26T05:00:05.658Z,89.05
2022-08-26T05:02:32.568Z,88.07
2022-08-26T05:04:59.779Z,89.09
2022-08-26T05:07:26.700Z,87.62
2022-08-26T05:09:53.679Z,88.50
2022-08-26T05:12:21.412Z,88.52
2022-08-26T05:14:48.268Z,87.83
2022-08-26T05:17:15.233Z,87.34
2022-08-26T05:19:42.951Z,87.74
2022-08-26T05:22:10.061Z,87.90
2022-08-26T05:24:40.345Z,88.81
2022-08-26T05:27:11.685Z,88.08
2022-08-26T05:29:39.267Z,87.74
2022-08-26T05:32:06.880Z,87.32
2022-08-26T05:34:34.419Z,87.22
2022-08-26T05:37:01.887Z,87.35
2022-08-26T05:39:29.258Z,86.78
2022-08-26T05:41:56.315Z,86.71
2022-08-26T05:44:23.182Z,86.34
2022-08-26T05:46:51.877Z,83.93
2022-08-26T05:49:18.875Z,84.53
2022-08-26T05:51:47.640Z,84.13
2022-08-26T05:54:22.102Z,82.57
2022-08-26T05:56:50.912Z,81.24
2022-08-26T05:59:21.407Z,79.44
2022-08-26T06:01:52.601Z,78.37
2022-08-26T06:04:20.009Z,77.56
2022-08-26T06:06:47.557Z,76.83
2022-08-26T06:09:14.721Z,75.95
2022-08-26T06:11:45.216Z,73.77
2022-08-26T06:14:12.323Z,74.68
2022-08-26T06:16:41.601Z,73.41
2022-08-26T06:19:11.287Z,72.34
2022-08-26T06:21:41.501Z,69.19
2022-08-26T06:24:30.434Z,69.18
2022-08-26T06:27:01.802Z,67.09
2022-08-26T06:29:31.431Z,65.27
2022-08-26T06:31:58.712Z,66.80
2022-08-26T06:34:30.356Z,63.79
2022-08-26T06:37:01.412Z,63.55
2022-08-26T06:39:30.967Z,62.00
2022-08-26T06:41:59.473Z,59.35
2022-08-26T06:44:27.318Z,59.90
2022-08-26T06:46:54.691Z,60.96
2022-08-26T06:49:26.817Z,57.96
2022-08-26T06:51:54.783Z,54.68
2022-08-26T06:54:22.421Z,56.27
2022-08-26T06:56:49.641Z,57.86
2022-08-26T06:59:16.575Z,56.52
2022-08-26T07:01:45.077Z,57.54
2022-08-26T07:04:20.308Z,57.99
2022-08-26T07:06:52.656Z,57.18
2022-08-26T07:09:22.673Z,57.15
2022-08-26T07:11:51.467Z,56.40
2022-08-26T07:14:19.307Z,57.30
2022-08-26T07:16:49.892Z,57.96
2022-08-26T07:19:30.319Z,57.02
2022-08-26T07:47:44.419Z,52.67
2022-08-26T07:50:11.670Z,52.67
2022-08-26T07:52:38.916Z,54.23
2022-08-26T07:55:11.631Z,54.41
2022-08-26T07:57:38.673Z,53.80
2022-08-26T08:00:09.177Z,53.46
2022-08-26T08:02:36.126Z,53.89
2022-08-26T08:05:06.061Z,53.68
2022-08-26T08:07:44.207Z,53.13
2022-08-26T08:10:15.538Z,52.30
2022-08-26T08:12:43.344Z,52.31
2022-08-26T08:15:13.401Z,51.39
2022-08-26T08:17:43.493Z,52.34
2022-08-26T08:20:12.282Z,51.48
2022-08-26T08:22:39.239Z,51.67
2022-08-26T08:25:08.163Z,51.93
2022-08-26T08:27:38.874Z,50.76
2022-08-26T08:30:06.924Z,50.79
2022-08-26T08:32:38.464Z,50.50
2022-08-26T08:35:11.600Z,50.37
2022-08-26T08:37:38.775Z,49.50
2022-08-26T08:40:08.095Z,49.44
2022-08-26T08:42:56.786Z,48.89
2022-08-26T08:45:51.713Z,48.77
2022-08-26T08:48:42.560Z,48.30
2022-08-26T08:51:23.968Z,48.26
2022-08-26T08:53:54.774Z,48.60
2022-08-26T08:56:27.514Z,47.90
2022-08-26T08:59:31.710Z,48.09
2022-08-26T09:02:08.726Z,46.74
2022-08-26T09:05:15.141Z,47.17
2022-08-26T09:07:51.000Z,46.93
2022-08-26T09:10:26.702Z,46.27
2022-08-26T09:12:53.640Z,45.25
2022-08-26T09:15:35.834Z,45.25
2022-08-26T09:18:09.078Z,44.69
2022-08-26T09:20:55.508Z,43.00
2022-08-26T09:23:22.703Z,44.36
2022-08-26T09:26:25.923Z,44.52
2022-08-26T09:29:01.080Z,44.75
2022-08-26T09:31:34.300Z,44.17
2022-08-26T09:34:22.639Z,43.91
2022-08-26T09:36:55.724Z,43.53
2022-08-26T09:39:27.111Z,42.84
2022-08-26T09:42:05.168Z,43.16
2022-08-26T09:44:33.123Z,43.69
2022-08-26T09:47:04.614Z,44.93
2022-08-26T09:49:41.278Z,43.82
2022-08-26T09:52:10.603Z,44.18
2022-08-26T09:54:38.786Z,42.57
2022-08-26T09:57:25.331Z,42.90
2022-08-26T09:59:53.406Z,41.71
2022-08-26T10:02:29.092Z,41.14
2022-08-26T10:04:58.511Z,43.24
2022-08-26T10:07:48.437Z,43.85
2022-08-26T10:10:41.209Z,43.82
2022-08-26T10:13:12.026Z,44.25
2022-08-26T10:15:50.657Z,43.49
2022-08-26T10:18:56.784Z,44.01
2022-08-26T10:21:33.187Z,44.26
2022-08-26T10:24:02.038Z,42.61
2022-08-26T10:27:05.629Z,43.29
2022-08-26T10:29:43.252Z,42.42
2022-08-26T10:32:18.854Z,42.15
2022-08-26T10:34:45.939Z,42.10
2022-08-26T10:37:18.761Z,40.73
2022-08-26T10:39:57.122Z,40.21
2022-08-26T10:42:37.598Z,40.47
2022-08-26T10:45:25.537Z,40.80
2022-08-26T10:48:01.339Z,41.38
2022-08-26T10:50:37.282Z,42.32
2022-08-26T10:53:14.929Z,42.09
2022-08-26T10:55:50.905Z,42.26
2022-08-26T10:58:41.664Z,42.62
2022-08-26T11:01:35.747Z,41.35
2022-08-26T11:04:28.804Z,41.75
2022-08-26T11:07:32.865Z,42.70
2022-08-26T11:10:12.958Z,42.02
2022-08-26T11:12:39.836Z,43.02
2022-08-26T11:15:19.963Z,41.54
2022-08-26T11:17:51.627Z,42.09
2022-08-26T11:20:27.971Z,42.47
2022-08-26T11:23:16.282Z,42.62
2022-08-26T11:26:01.120Z,42.20
2022-08-26T11:28:38.239Z,43.46
2022-08-26T11:31:10.206Z,42.45
2022-08-26T11:33:46.102Z,42.63
2022-08-26T11:36:42.211Z,43.10
2022-08-26T11:39:29.308Z,42.07
2022-08-26T11:42:00.227Z,41.61
2022-08-26T11:44:39.564Z,41.52
2022-08-26T11:47:11.686Z,41.09
2022-08-26T11:49:41.752Z,41.65
2022-08-26T11:52:10.113Z,40.40
2022-08-26T11:54:37.035Z,40.57
2022-08-26T11:57:09.346Z,40.04
2022-08-26T11:59:42.453Z,40.20
2022-08-26T12:02:17.882Z,40.05
2022-08-26T12:04:49.066Z,39.61
2022-08-26T12:07:18.586Z,40.71
2022-08-26T12:10:00.638Z,40.58
2022-08-26T12:12:35.982Z,40.91
2022-08-26T12:15:10.689Z,41.08
2022-08-26T12:17:39.705Z,40.77
2022-08-26T12:20:30.218Z,41.09
2022-08-26T12:23:00.191Z,40.88
2022-08-26T12:25:28.188Z,40.82
2022-08-26T12:28:05.671Z,39.94
2022-08-26T12:30:32.592Z,39.64
2022-08-26T12:33:21.960Z,38.80
2022-08-26T12:35:56.314Z,37.72
2022-08-26T12:38:27.102Z,37.87
2022-08-26T12:40:54.807Z,39.01
2022-08-26T12:43:57.432Z,38.20
2022-08-26T12:46:29.044Z,37.41
2022-08-26T12:49:01.178Z,37.72
2022-08-26T12:51:31.366Z,38.51
2022-08-26T12:53:59.405Z,39.13
2022-08-26T12:56:47.726Z,36.51
2022-08-26T12:59:25.175Z,38.75
2022-08-26T13:01:53.720Z,38.34
2022-08-26T13:04:39.285Z,39.79
2022-08-26T13:07:35.553Z,38.85
2022-08-26T13:10:02.456Z,38.76
2022-08-26T13:12:37.535Z,37.40
2022-08-26T13:15:06.579Z,38.24
2022-08-26T13:17:36.025Z,39.56
2022-08-26T13:20:04.666Z,39.63
2022-08-26T13:22:31.930Z,40.75
2022-08-26T13:24:58.848Z,43.34
2022-08-26T13:27:27.388Z,43.87
2022-08-26T13:29:57.240Z,45.26
2022-08-26T13:32:27.166Z,46.60
2022-08-26T13:34:56.551Z,45.36
2022-08-26T13:37:34.300Z,45.21
2022-08-26T13:40:05.066Z,45.86
2022-08-26T13:42:32.040Z,44.33
2022-08-26T13:44:59.865Z,44.54
2022-08-26T13:47:30.416Z,44.22
2022-08-26T13:49:57.591Z,44.67
2022-08-26T13:52:30.090Z,44.49
2022-08-26T13:55:02.188Z,43.71
2022-08-26T13:57:30.545Z,42.89
2022-08-26T13:59:59.192Z,41.90
2022-08-26T14:02:27.870Z,41.88
2022-08-26T14:04:55.447Z,42.21
2022-08-26T14:07:23.506Z,42.48
2022-08-26T14:09:50.563Z,42.24
2022-08-26T14:12:17.727Z,43.18
2022-08-26T14:14:45.089Z,42.96
2022-08-26T14:17:17.954Z,43.31
2022-08-26T14:19:46.977Z,43.16
2022-08-26T14:22:17.476Z,41.96
2022-08-26T14:24:45.139Z,41.32
2022-08-26T14:27:13.269Z,41.68
2022-08-26T14:29:40.790Z,41.01
2022-08-26T14:32:17.186Z,39.66
2022-08-26T14:34:47.989Z,39.94
2022-08-26T14:37:15.422Z,38.97
2022-08-26T14:39:42.498Z,38.69
2022-08-26T14:42:10.219Z,37.72
2022-08-26T14:44:37.734Z,36.04
2022-08-26T14:47:06.733Z,36.92
2022-08-26T14:49:33.773Z,38.04
2022-08-26T14:52:00.670Z,37.95
2022-08-26T14:54:28.959Z,37.89
2022-08-26T14:56:59.699Z,38.58
2022-08-26T14:59:38.807Z,38.51
2022-08-26T15:02:08.917Z,39.12
2022-08-26T15:04:41.029Z,38.95
2022-08-26T15:10:09.046Z,39.16
2022-08-26T15:12:35.985Z,39.26
2022-08-26T15:15:03.262Z,39.96
2022-08-26T15:17:30.355Z,39.79
2022-08-26T15:19:57.726Z,40.41
2022-08-26T15:22:24.624Z,39.35
2022-08-26T15:24:58.047Z,38.39
2022-08-26T15:27:25.004Z,37.82
2022-08-26T15:29:52.000Z,38.46
2022-08-26T15:32:18.980Z,40.29
2022-08-26T15:34:45.904Z,39.11
2022-08-26T15:37:12.987Z,39.52
2022-08-26T15:39:39.896Z,39.36
2022-08-26T15:42:07.051Z,39.37
2022-08-26T15:44:34.296Z,39.08
2022-08-26T15:47:01.271Z,39.67
2022-08-26T15:49:28.387Z,39.94
2022-08-26T15:51:55.370Z,39.40
2022-08-26T15:54:23.238Z,40.03
2022-08-26T15:56:52.451Z,39.47
2022-08-26T15:59:21.672Z,38.80
2022-08-26T16:01:48.841Z,40.15
2022-08-26T16:04:16.036Z,39.12
2022-08-26T16:06:43.651Z,40.51
2022-08-26T16:09:10.966Z,40.61
2022-08-26T16:11:38.020Z,39.55
2022-08-26T16:14:06.103Z,39.87
2022-08-26T16:16:33.101Z,39.74
2022-08-26T16:19:03.271Z,40.33
2022-08-26T16:21:34.062Z,40.88
2022-08-26T16:24:00.996Z,40.32
2022-08-26T16:26:32.648Z,40.65
2022-08-26T16:29:01.922Z,40.76
2022-08-26T16:31:28.986Z,40.03
2022-08-26T16:33:55.875Z,39.30
2022-08-26T16:36:22.929Z,40.00
2022-08-26T16:38:56.537Z,40.00
2022-08-26T16:41:26.360Z,40.08
2022-08-26T16:43:54.207Z,40.09
2022-08-26T16:46:23.733Z,40.31
2022-08-26T16:48:50.880Z,40.12
2022-08-26T16:51:23.044Z,39.78
2022-08-26T16:53:51.245Z,40.13
2022-08-26T16:56:21.150Z,40.03
2022-08-26T16:58:48.510Z,40.35
2022-08-26T17:01:16.843Z,40.00
2022-08-26T17:03:44.305Z,40.80
2022-08-26T17:06:11.708Z,41.13
2022-08-26T17:08:40.132Z,40.86
2022-08-26T17:11:08.513Z,41.91
2022-08-26T17:13:36.655Z,42.29
2022-08-26T17:16:07.582Z,43.03
2022-08-26T17:18:35.041Z,42.05
2022-08-26T17:21:05.139Z,42.73
2022-08-26T17:23:32.831Z,42.78
2022-08-26T17:25:59.757Z,43.05
2022-08-26T17:28:26.689Z,42.89
2022-08-26T17:30:56.297Z,43.41
2022-08-26T17:33:24.629Z,43.35
2022-08-26T17:35:53.116Z,43.50
2022-08-26T17:38:21.273Z,44.16
2022-08-26T17:40:52.103Z,44.07
2022-08-26T17:43:19.417Z,44.81
2022-08-26T17:45:46.810Z,44.95
2022-08-26T17:48:14.083Z,44.99
2022-08-26T17:50:43.150Z,45.81
2022-08-26T17:53:18.552Z,46.82
2022-08-26T17:55:46.777Z,48.34
2022-08-26T17:58:14.887Z,48.63
2022-08-26T18:00:47.569Z,48.66
2022-08-26T18:03:15.100Z,48.95
2022-08-26T18:05:42.720Z,49.79
2022-08-26T18:08:10.074Z,50.53
2022-08-26T18:10:37.008Z,51.48
2022-08-26T18:13:04.828Z,51.14
2022-08-26T18:15:31.753Z,51.65
2022-08-26T18:17:58.747Z,51.81
2022-08-26T18:20:26.044Z,51.63
2022-08-26T18:22:54.167Z,51.92
2022-08-26T18:25:21.223Z,51.49
2022-08-26T18:27:48.152Z,55.54
2022-08-26T18:30:20.899Z,57.16
2022-08-26T18:32:49.477Z,57.17
2022-08-26T18:35:16.679Z,57.92
2022-08-26T18:37:44.523Z,57.50
2022-08-26T18:40:13.948Z,57.75
2022-08-26T18:42:41.499Z,58.21
2022-08-26T18:45:09.664Z,57.43
2022-08-26T18:47:44.039Z,57.39
2022-08-26T18:50:11.459Z,58.59
2022-08-26T18:52:38.815Z,57.87
2022-08-26T18:55:06.727Z,57.60
2022-08-26T18:57:33.930Z,57.43
2022-08-26T19:00:01.350Z,56.83
2022-08-26T19:02:28.558Z,57.03
2022-08-26T19:04:57.548Z,56.94
2022-08-26T19:07:24.586Z,56.69
2022-08-26T19:09:54.045Z,56.53
2022-08-26T19:12:21.488Z,58.04
2022-08-26T19:14:48.374Z,59.43
2022-08-26T19:17:15.551Z,59.66
2022-08-26T19:19:42.543Z,59.73
2022-08-26T19:22:11.304Z,59.60
2022-08-26T19:24:38.334Z,59.48
2022-08-26T19:27:05.525Z,59.38
2022-08-26T19:29:35.429Z,61.83
2022-08-26T19:32:04.416Z,61.82
2022-08-26T19:34:31.807Z,62.74
2022-08-26T19:36:58.745Z,62.46
2022-08-26T19:39:26.699Z,61.63
2022-08-26T19:41:53.690Z,63.44
2022-08-26T19:44:41.683Z,62.85
2022-08-26T19:47:11.050Z,63.66
2022-08-26T19:49:38.310Z,62.79
2022-08-26T19:52:06.122Z,61.77
2022-08-26T19:54:34.676Z,62.86
2022-08-26T19:57:02.039Z,62.53
2022-08-26T19:59:29.489Z,61.80
2022-08-26T20:02:00.803Z,64.55
2022-08-26T20:04:32.912Z,65.81
2022-08-26T20:07:01.851Z,66.45
2022-08-26T20:09:34.248Z,65.95
2022-08-26T20:12:02.085Z,64.63
2022-08-26T20:14:29.908Z,66.54
2022-08-26T20:16:57.350Z,66.42
2022-08-26T20:19:42.885Z,65.93
2022-08-26T20:22:10.826Z,66.80
2022-08-26T20:24:37.999Z,67.40
2022-08-26T20:27:08.011Z,69.52
2022-08-26T20:29:36.500Z,70.39
2022-08-26T20:32:06.206Z,69.36
2022-08-26T20:34:33.847Z,68.72
2022-08-26T20:37:01.239Z,68.93
2022-08-26T20:39:31.246Z,67.78
2022-08-26T20:41:58.967Z,67.00
2022-08-26T20:44:27.083Z,67.07
2022-08-26T20:46:55.375Z,67.22
2022-08-26T20:49:22.428Z,67.44
2022-08-26T20:51:52.617Z,67.37
2022-08-26T20:54:28.222Z,67.24
2022-08-26T20:56:57.324Z,67.83
2022-08-26T20:59:25.043Z,67.47
2022-08-26T21:01:52.115Z,70.14
2022-08-26T21:04:22.170Z,71.80
2022-08-26T21:06:52.160Z,75.70
2022-08-26T21:09:21.786Z,77.31
2022-08-26T21:11:48.932Z,77.12
2022-08-26T21:14:16.928Z,74.33
2022-08-26T21:16:45.872Z,71.27
2022-08-26T21:19:17.879Z,72.43
2022-08-26T21:21:46.012Z,73.68
2022-08-26T21:24:13.548Z,75.42
2022-08-26T21:26:40.643Z,74.49
2022-08-26T21:29:09.993Z,74.12
2022-08-26T21:31:42.245Z,76.76
2022-08-26T21:34:12.186Z,75.52
2022-08-26T21:36:39.140Z,74.87
2022-08-26T21:39:11.230Z,74.87
2022-08-26T21:41:39.287Z,74.86
2022-08-26T21:44:06.809Z,76.44
2022-08-26T21:46:37.421Z,76.28
2022-08-26T21:49:07.597Z,75.50
2022-08-26T21:51:41.020Z,75.38
2022-08-26T21:54:11.348Z,73.90
2022-08-26T21:56:42.154Z,72.90
2022-08-26T21:59:09.675Z,73.23
2022-08-26T22:01:37.864Z,72.86
2022-08-26T22:04:06.817Z,72.22
2022-08-26T22:06:35.723Z,71.85
2022-08-26T22:09:02.601Z,72.70
2022-08-26T22:11:29.561Z,75.17
2022-08-26T22:13:57.077Z,76.01
2022-08-26T22:16:26.962Z,78.02
2022-08-26T22:18:54.877Z,78.37
2022-08-26T22:21:28.125Z,78.88
2022-08-26T22:23:57.986Z,78.60
2022-08-26T22:26:28.955Z,79.92
2022-08-26T22:28:59.161Z,79.00
2022-08-26T22:31:37.514Z,78.47
2022-08-26T22:34:11.183Z,80.02
2022-08-26T22:36:44.371Z,80.59
2022-08-26T22:39:13.539Z,81.38
2022-08-26T22:41:43.188Z,81.30
2022-08-26T22:44:11.876Z,78.59
2022-08-26T22:46:40.494Z,78.97
2022-08-26T22:49:09.708Z,76.72
2022-08-26T22:51:36.717Z,75.77
2022-08-26T22:54:03.936Z,76.99
2022-08-26T22:56:30.846Z,77.27
2022-08-26T22:58:57.780Z,78.75
2022-08-26T23:01:24.823Z,78.97
2022-08-26T23:03:51.812Z,79.63
2022-08-26T23:06:18.739Z,77.56
2022-08-26T23:08:47.201Z,77.26
2022-08-26T23:11:15.106Z,78.03
2022-08-26T23:13:42.091Z,74.74
2022-08-26T23:16:11.226Z,75.20
2022-08-26T23:18:40.128Z,77.89
2022-08-26T23:21:07.423Z,80.39
2022-08-26T23:23:35.353Z,80.94
2022-08-26T23:26:06.164Z,80.17
2022-08-26T23:28:34.647Z,80.47
2022-08-26T23:31:01.898Z,80.40
2022-08-26T23:33:48.915Z,79.51
2022-08-26T23:36:18.207Z,79.25
2022-08-26T23:38:52.716Z,80.19
2022-08-26T23:41:22.486Z,79.05
2022-08-26T23:43:50.012Z,79.84
2022-08-26T23:46:17.720Z,78.52
2022-08-26T23:48:44.762Z,77.73
2022-08-26T23:51:30.450Z,77.35
2022-08-26T23:53:58.057Z,76.77
2022-08-26T23:56:25.430Z,78.48
2022-08-26T23:58:54.323Z,81.67
